This is the latest recevied weather packets stored in our database for station/object RV1CJ-14. If no packets are shown the sender has not sent any weather packets the latest 10 day(s).
| Time | Temp. | Humidity | Pressure | Rain* | Wind** | Luminosity | Snow |
|---|---|---|---|---|---|---|---|
| 1777695003 | 10° C | 73% | 1009.4 hPa | 0 mm | - | 223 W/m² | - |
| 1777694403 | 9.44° C | 74% | 1009.5 hPa | 0 mm | - | 88 W/m² | - |
| 1777693803 | 9.44° C | 75% | 1009.5 hPa | 0 mm | - | 134 W/m² | - |
| 1777693203 | 8.89° C | 75% | 1009.6 hPa | 0 mm | - | 58 W/m² | - |
| 1777692603 | 8.89° C | 75% | 1009.7 hPa | 0 mm | - | 19 W/m² | - |
| 1777692003 | 8.89° C | 76% | 1009.8 hPa | 0 mm | - | 18 W/m² | - |
| 1777691403 | 8.33° C | 76% | 1009.8 hPa | 0 mm | - | 21 W/m² | - |
| 1777690803 | 8.33° C | 76% | 1009.9 hPa | 0 mm | - | 14 W/m² | - |
| 1777690203 | 8.33° C | 76% | 1010 hPa | 0 mm | - | 11 W/m² | - |
| 1777689603 | 8.33° C | 76% | 1010.1 hPa | 0 mm | - | 9 W/m² | - |
| 1777689003 | 8.33° C | 76% | 1010.2 hPa | 0 mm | - | 7 W/m² | - |
| 1777650003 | 12.22° C | 69% | 1013.6 hPa | 0 mm | - | 19 W/m² | - |
| 1777649403 | 12.22° C | 69% | 1013.8 hPa | 0 mm | - | 21 W/m² | - |
| 1777648803 | 12.22° C | 69% | 1013.8 hPa | 0 mm | - | 23 W/m² | - |
| 1777648203 | 12.78° C | 67% | 1014 hPa | 0 mm | - | 23 W/m² | - |
| 1777646403 | 13.89° C | 63% | 1014.1 hPa | 0 mm | - | 25 W/m² | - |
| 1777645803 | 14.44° C | 63% | 1014.2 hPa | 0 mm | - | 26 W/m² | - |
| 1777645203 | 14.44° C | 63% | 1014.2 hPa | 0 mm | - | 28 W/m² | - |
| 1777644603 | 15° C | 63% | 1014.3 hPa | 0 mm | - | 30 W/m² | - |
| 1777642803 | 15° C | 62% | 1014.6 hPa | 0 mm | - | 33 W/m² | - |
| 1777642203 | 15° C | 61% | 1014.7 hPa | 0 mm | - | 35 W/m² | - |
| 1777638003 | 15° C | 63% | 1015.4 hPa | 0 mm | - | 109 W/m² | - |
| 1777635603 | 13.89° C | 62% | 1016 hPa | 0 mm | - | 56 W/m² | - |
| 1777635003 | 13.33° C | 62% | 1016.1 hPa | 0 mm | - | 62 W/m² | - |
| 1777634403 | 13.33° C | 62% | 1016.2 hPa | 0 mm | - | 95 W/m² | - |
* Rain latest hour (hover to see other rain measurements)
** Current wind speed in m/s (hover to see current wind gust speed)